createdAt,value
2023-07-03T00:00:28.600Z,100910.44
2023-07-03T00:02:56.180Z,100914.00
2023-07-03T00:05:25.103Z,100903.38
2023-07-03T00:07:52.964Z,100892.00
2023-07-03T00:10:24.665Z,100898.25
2023-07-03T00:12:52.255Z,100888.66
2023-07-03T00:15:20.121Z,100898.41
2023-07-03T00:17:47.869Z,100899.41
2023-07-03T00:20:15.958Z,100906.59
2023-07-03T00:22:45.435Z,100904.91
2023-07-03T00:25:13.195Z,100888.19
2023-07-03T00:27:40.726Z,100896.22
2023-07-03T00:30:09.265Z,100889.19
2023-07-03T00:32:36.938Z,100894.59
2023-07-03T00:35:05.027Z,100893.72
2023-07-03T00:37:32.590Z,100892.00
2023-07-03T00:40:00.717Z,100887.63
2023-07-03T00:42:32.453Z,100889.50
2023-07-03T00:45:00.753Z,100885.13
2023-07-03T00:47:28.827Z,100887.84
2023-07-03T00:49:56.769Z,100889.59
2023-07-03T00:52:26.635Z,100887.00
2023-07-03T00:54:55.620Z,100887.00
2023-07-03T00:57:24.558Z,100895.97
2023-07-03T00:59:52.275Z,100892.44
2023-07-03T01:02:30.734Z,100892.44
2023-07-03T01:05:19.585Z,100882.84
2023-07-03T01:07:48.044Z,100890.03
2023-07-03T01:10:22.703Z,100877.72
2023-07-03T01:13:03.953Z,100875.13
2023-07-03T01:15:39.637Z,100877.00
2023-07-03T01:18:08.956Z,100881.47
2023-07-03T01:20:54.503Z,100880.44
2023-07-03T01:23:43.002Z,100875.13
2023-07-03T01:26:14.161Z,100879.66
2023-07-03T01:28:45.797Z,100885.88
2023-07-03T01:31:15.833Z,100884.41
2023-07-03T01:33:46.142Z,100886.19
2023-07-03T01:36:15.621Z,100884.41
2023-07-03T01:38:46.637Z,100877.38
2023-07-03T01:41:17.693Z,100872.94
2023-07-03T01:43:47.587Z,100888.94
2023-07-03T01:46:16.881Z,100880.97
2023-07-03T01:48:44.712Z,100878.41
2023-07-03T01:51:25.947Z,100881.91
2023-07-03T01:54:11.865Z,100874.97
2023-07-03T01:56:47.067Z,100875.09
2023-07-03T01:59:19.112Z,100885.81
2023-07-03T02:01:58.718Z,100877.84
2023-07-03T02:04:35.148Z,100876.09
2023-07-03T02:07:07.188Z,100871.72
2023-07-03T02:09:35.048Z,100884.25
2023-07-03T02:12:07.194Z,100879.88
2023-07-03T02:14:36.611Z,100878.19
2023-07-03T02:17:07.506Z,100871.13
2023-07-03T02:19:36.224Z,100869.44
2023-07-03T02:22:04.305Z,100873.00
2023-07-03T02:24:31.960Z,100864.28
2023-07-03T02:27:01.224Z,100853.84
2023-07-03T02:29:28.790Z,100857.41
2023-07-03T02:31:56.248Z,100859.25
2023-07-03T02:34:24.056Z,100869.03
2023-07-03T02:36:51.594Z,100861.13
2023-07-03T02:39:19.218Z,100862.16
2023-07-03T02:41:46.730Z,100869.25
2023-07-03T02:44:14.305Z,100862.22
2023-07-03T02:46:43.278Z,100859.56
2023-07-03T02:49:12.864Z,100854.34
2023-07-03T02:51:43.887Z,100847.38
2023-07-03T02:54:11.766Z,100847.38
2023-07-03T02:56:40.874Z,100849.19
2023-07-03T02:59:08.527Z,100840.44
2023-07-03T03:01:37.737Z,100841.47
2023-07-03T03:04:07.534Z,100850.44
2023-07-03T03:06:35.913Z,100841.69
2023-07-03T03:09:04.761Z,100834.66
2023-07-03T03:11:33.646Z,100832.06
2023-07-03T03:14:01.985Z,100830.44
2023-07-03T03:16:30.251Z,100834.88
2023-07-03T03:18:57.853Z,100842.13
2023-07-03T03:21:25.444Z,100835.19
2023-07-03T03:23:53.138Z,100832.66
2023-07-03T03:26:20.720Z,100838.19
2023-07-03T03:28:48.558Z,100837.47
2023-07-03T03:31:16.305Z,100833.16
2023-07-03T03:33:52.504Z,100836.84
2023-07-03T03:36:20.255Z,100828.09
2023-07-03T03:38:47.875Z,100833.53
2023-07-03T03:41:16.355Z,100838.91
2023-07-03T03:43:48.819Z,100843.44
2023-07-03T03:46:16.907Z,100835.59
2023-07-03T03:48:46.021Z,100840.97
2023-07-03T03:51:13.796Z,100850.72
2023-07-03T03:53:41.874Z,100838.31
2023-07-03T03:56:09.670Z,100844.56
2023-07-03T03:58:39.135Z,100836.63
2023-07-03T04:01:06.694Z,100843.56
2023-07-03T04:03:34.272Z,100842.69
2023-07-03T04:06:02.201Z,100856.72
2023-07-03T04:08:29.716Z,100848.78
2023-07-03T04:10:57.971Z,100848.72
2023-07-03T04:13:25.686Z,100858.44
2023-07-03T04:15:53.431Z,100856.66
2023-07-03T04:18:23.081Z,100845.97
2023-07-03T04:20:51.690Z,100842.41
2023-07-03T04:23:19.583Z,100846.75
2023-07-03T04:25:50.093Z,100847.56
2023-07-03T04:28:21.118Z,100848.28
2023-07-03T04:30:49.500Z,100850.00
2023-07-03T04:33:17.846Z,100853.44
2023-07-03T04:35:48.114Z,100855.09
2023-07-03T04:38:20.198Z,100854.13
2023-07-03T04:40:48.162Z,100854.00
2023-07-03T04:43:17.108Z,100846.84
2023-07-03T04:45:51.278Z,100848.56
2023-07-03T04:48:19.606Z,100856.50
2023-07-03T04:50:49.829Z,100854.75
2023-07-03T04:53:22.247Z,100855.44
2023-07-03T04:55:52.109Z,100859.75
2023-07-03T04:58:20.297Z,100858.75
2023-07-03T05:00:48.284Z,100871.03
2023-07-03T05:03:16.785Z,100862.16
2023-07-03T05:05:44.436Z,100869.28
2023-07-03T05:08:12.234Z,100868.25
2023-07-03T05:10:39.761Z,100870.84
2023-07-03T05:13:07.496Z,100876.03
2023-07-03T05:15:35.389Z,100880.38
2023-07-03T05:18:03.113Z,100879.47
2023-07-03T05:20:31.000Z,100884.78
2023-07-03T05:22:59.190Z,100882.00
2023-07-03T05:25:26.801Z,100898.75
2023-07-03T05:27:54.295Z,100893.53
2023-07-03T05:30:21.742Z,100896.16
2023-07-03T05:32:49.367Z,100898.75
2023-07-03T05:35:17.069Z,100895.97
2023-07-03T05:37:44.708Z,100895.81
2023-07-03T05:40:16.197Z,100899.19
2023-07-03T05:42:44.344Z,100906.06
2023-07-03T05:45:12.196Z,100908.34
2023-07-03T05:47:39.887Z,100903.66
2023-07-03T05:50:08.501Z,100902.31
2023-07-03T05:52:37.686Z,100908.13
2023-07-03T05:55:06.214Z,100908.66
2023-07-03T05:57:33.890Z,100911.03
2023-07-03T06:00:01.392Z,100904.56
2023-07-03T06:02:29.844Z,100901.84
2023-07-03T06:04:57.484Z,100907.06
2023-07-03T06:07:25.026Z,100903.34
2023-07-03T06:09:52.859Z,100905.88
2023-07-03T06:12:20.404Z,100909.31
2023-07-03T06:14:47.905Z,100921.66
2023-07-03T06:17:15.437Z,100916.28
2023-07-03T06:19:43.165Z,100911.84
2023-07-03T06:22:10.706Z,100922.38
2023-07-03T06:24:38.243Z,100919.72
2023-07-03T06:27:07.694Z,100916.97
2023-07-03T06:29:35.645Z,100923.06
2023-07-03T06:32:03.353Z,100908.88
2023-07-03T06:34:31.036Z,100917.63
2023-07-03T06:36:58.773Z,100921.13
2023-07-03T06:39:26.248Z,100918.41
2023-07-03T06:41:53.797Z,100926.19
2023-07-03T06:44:21.915Z,100926.13
2023-07-03T06:46:51.937Z,100928.69
2023-07-03T06:49:21.369Z,100922.44
2023-07-03T06:51:50.026Z,100925.97
2023-07-03T06:54:17.557Z,100928.78
2023-07-03T06:56:45.142Z,100922.63
2023-07-03T06:59:13.108Z,100919.19
2023-07-03T07:01:41.829Z,100926.19
2023-07-03T07:04:10.560Z,100922.44
2023-07-03T07:06:40.645Z,100925.72
2023-07-03T07:09:08.224Z,100927.13
2023-07-03T07:11:37.262Z,100927.69
2023-07-03T07:14:07.336Z,100928.22
2023-07-03T07:16:37.729Z,100928.03
2023-07-03T07:19:09.084Z,100930.56
2023-07-03T07:21:39.630Z,100935.88
2023-07-03T07:24:23.388Z,100927.91
2023-07-03T07:26:56.467Z,100934.06
2023-07-03T07:29:26.203Z,100938.34
2023-07-03T07:31:56.918Z,100927.59
2023-07-03T07:34:25.623Z,100925.53
2023-07-03T07:36:53.701Z,100931.66
2023-07-03T07:39:22.550Z,100937.75
2023-07-03T07:41:52.289Z,100945.63
2023-07-03T07:44:20.325Z,100950.81
2023-07-03T07:46:48.250Z,100945.25
2023-07-03T07:49:16.149Z,100942.19
2023-07-03T07:51:43.612Z,100949.84
2023-07-03T07:54:11.202Z,100958.41
2023-07-03T07:56:38.702Z,100951.91
2023-07-03T07:59:06.314Z,100956.81
2023-07-03T08:01:34.025Z,100952.94
2023-07-03T08:04:01.708Z,100956.66
2023-07-03T08:06:29.335Z,100952.16
2023-07-03T08:08:56.941Z,100961.91
2023-07-03T08:11:29.466Z,100958.50
2023-07-03T08:13:56.912Z,100965.59
2023-07-03T08:16:24.581Z,100956.97
2023-07-03T08:18:52.362Z,100962.56
2023-07-03T08:21:20.569Z,100959.25
2023-07-03T08:23:48.049Z,100954.69
2023-07-03T08:26:23.121Z,100949.56
2023-07-03T08:28:50.871Z,100957.25
2023-07-03T08:31:18.859Z,100959.66
2023-07-03T08:33:46.608Z,100956.81
2023-07-03T08:38:45.456Z,100960.53
2023-07-03T08:41:14.657Z,100965.38
2023-07-03T08:43:48.154Z,100967.25
2023-07-03T08:46:26.068Z,100960.38
2023-07-03T08:49:04.954Z,100970.75
2023-07-03T08:51:38.225Z,100963.19
2023-07-03T08:54:19.729Z,100965.41
2023-07-03T08:56:49.267Z,100967.03
2023-07-03T08:59:16.811Z,100977.84
2023-07-03T09:01:58.005Z,100973.75
2023-07-03T09:05:26.881Z,100974.97
2023-07-03T09:08:01.216Z,100988.34
2023-07-03T09:10:42.563Z,100982.88
2023-07-03T09:13:28.278Z,100985.25
2023-07-03T09:16:26.848Z,100980.16
2023-07-03T09:19:07.196Z,100982.88
2023-07-03T09:21:38.743Z,100981.22
2023-07-03T09:24:40.866Z,100977.75
2023-07-03T09:27:21.014Z,100977.88
2023-07-03T09:29:50.256Z,100979.22
2023-07-03T09:32:27.939Z,100982.94
2023-07-03T09:35:13.599Z,100982.19
2023-07-03T09:37:51.199Z,100979.94
2023-07-03T09:40:27.043Z,100978.81
2023-07-03T09:42:54.826Z,100983.66
2023-07-03T09:45:31.628Z,100991.66
2023-07-03T09:48:04.219Z,100986.72
2023-07-03T09:50:37.646Z,100990.94
2023-07-03T09:53:09.216Z,100989.59
2023-07-03T09:55:37.934Z,100990.75
2023-07-03T09:58:17.659Z,100988.47
2023-07-03T10:00:53.132Z,100991.41
2023-07-03T10:03:32.433Z,101000.66
2023-07-03T10:11:44.710Z,100991.38
2023-07-03T10:14:21.803Z,100999.91
2023-07-03T10:16:51.964Z,101005.88
2023-07-03T10:19:21.704Z,101006.56
2023-07-03T10:21:52.814Z,101008.75
2023-07-03T10:24:22.085Z,101010.75
2023-07-03T10:27:00.021Z,101014.66
2023-07-03T10:29:38.491Z,101020.50
2023-07-03T10:32:15.142Z,101016.84
2023-07-03T10:35:02.291Z,101014.63
2023-07-03T10:37:44.726Z,101002.34
2023-07-03T10:40:23.280Z,101011.00
2023-07-03T10:42:57.523Z,101000.97
2023-07-03T10:45:28.520Z,100993.88
2023-07-03T10:48:02.863Z,100990.56
2023-07-03T10:50:41.638Z,100993.03
2023-07-03T10:53:36.833Z,100988.72
2023-07-03T10:56:22.941Z,100988.97
2023-07-03T10:59:14.898Z,100983.63
2023-07-03T11:02:10.582Z,100989.38
2023-07-03T11:04:50.362Z,100981.50
2023-07-03T11:07:29.259Z,100977.84
2023-07-03T11:10:25.723Z,100976.84
2023-07-03T11:13:18.207Z,100976.53
2023-07-03T11:16:08.500Z,100983.41
2023-07-03T11:25:10.746Z,100985.22
2023-07-03T11:28:01.484Z,100985.63
2023-07-03T11:30:29.509Z,100987.13
2023-07-03T11:33:01.024Z,100977.31
2023-07-03T11:41:00.505Z,100973.34
2023-07-03T11:43:33.428Z,100986.28
2023-07-03T11:46:00.894Z,100980.19
2023-07-03T11:48:39.348Z,100983.38
2023-07-03T11:51:13.931Z,100980.03
2023-07-03T11:53:52.400Z,100977.06
2023-07-03T11:56:32.435Z,100975.50
2023-07-03T11:59:26.875Z,100985.13
2023-07-03T12:02:15.147Z,100980.59
2023-07-03T12:04:49.944Z,100985.19
2023-07-03T12:07:21.434Z,100992.63
2023-07-03T12:09:51.394Z,100998.78
2023-07-03T12:12:25.753Z,100995.78
2023-07-03T12:15:03.119Z,100996.53
2023-07-03T12:17:37.110Z,100995.16
2023-07-03T12:20:22.591Z,100999.19
2023-07-03T12:22:53.344Z,101003.84
2023-07-03T12:25:28.754Z,101000.22
2023-07-03T12:28:14.232Z,100999.81
2023-07-03T12:30:42.161Z,101014.50
2023-07-03T12:33:20.093Z,101007.56
2023-07-03T12:35:47.869Z,100994.81
2023-07-03T12:38:17.824Z,101010.47
2023-07-03T12:40:47.428Z,100990.88
2023-07-03T12:43:18.973Z,100997.81
2023-07-03T12:45:55.370Z,100993.03
2023-07-03T12:48:24.575Z,100979.56
2023-07-03T12:50:59.309Z,101003.19
2023-07-03T12:53:30.915Z,100998.06
2023-07-03T12:56:07.586Z,100994.13
2023-07-03T12:58:35.273Z,100999.97
2023-07-03T13:01:09.169Z,100998.66
2023-07-03T13:03:42.437Z,101001.34
2023-07-03T13:06:24.674Z,100995.81
2023-07-03T13:08:53.834Z,101004.78
2023-07-03T13:11:41.085Z,101010.44
2023-07-03T13:14:22.274Z,101002.31
2023-07-03T13:16:54.062Z,101009.28
2023-07-03T13:19:31.471Z,101004.34
2023-07-03T13:22:08.149Z,101017.72
2023-07-03T13:24:46.010Z,101007.78
2023-07-03T13:27:28.282Z,101005.78
2023-07-03T13:30:29.836Z,100994.38
2023-07-03T13:33:11.643Z,100990.88
2023-07-03T13:35:52.377Z,101006.94
2023-07-03T13:38:30.105Z,100999.47
2023-07-03T13:43:32.381Z,100988.31
2023-07-03T13:46:00.249Z,100999.22
2023-07-03T13:48:28.770Z,100998.63
2023-07-03T13:50:57.128Z,100991.84
2023-07-03T13:53:27.069Z,100985.56
2023-07-03T13:55:55.208Z,100988.75
2023-07-03T13:58:23.036Z,100989.72
2023-07-03T14:00:50.686Z,100992.63
2023-07-03T14:03:18.443Z,101002.41
2023-07-03T14:05:51.119Z,100996.41
2023-07-03T14:08:22.781Z,100980.09
2023-07-03T14:10:50.575Z,100987.56
2023-07-03T14:13:20.801Z,100977.66
2023-07-03T14:15:48.985Z,100979.88
2023-07-03T14:18:18.654Z,100987.25
2023-07-03T14:20:49.270Z,100981.25
2023-07-03T14:23:18.113Z,100989.00
2023-07-03T14:25:47.744Z,100981.50
2023-07-03T14:28:16.006Z,100988.72
2023-07-03T14:30:43.721Z,100982.97
2023-07-03T14:33:11.296Z,100980.94
2023-07-03T14:35:39.003Z,100969.72
2023-07-03T14:38:06.708Z,100970.16
2023-07-03T14:40:46.342Z,100971.22
2023-07-03T14:43:14.371Z,100962.03
2023-07-03T14:45:44.067Z,100968.31
2023-07-03T14:48:11.995Z,100976.16
2023-07-03T14:50:41.735Z,100971.44
2023-07-03T14:53:09.486Z,100981.78
2023-07-03T14:55:37.401Z,100962.97
2023-07-03T14:58:10.614Z,100965.03
2023-07-03T15:00:40.931Z,100961.59
2023-07-03T15:03:12.500Z,100965.03
2023-07-03T15:05:40.387Z,100966.28
2023-07-03T15:08:08.042Z,100954.34
2023-07-03T15:10:38.515Z,100957.72
2023-07-03T15:13:12.308Z,100958.38
2023-07-03T15:15:48.165Z,100963.59
2023-07-03T15:18:16.258Z,100960.78
2023-07-03T15:20:44.129Z,100967.28
2023-07-03T15:23:11.744Z,100958.44
2023-07-03T15:25:39.294Z,100958.31
2023-07-03T15:28:07.121Z,100953.84
2023-07-03T15:30:40.308Z,100961.63
2023-07-03T15:33:08.057Z,100955.53
2023-07-03T15:35:36.438Z,100959.19
2023-07-03T15:38:04.284Z,100958.44
2023-07-03T15:40:31.932Z,100952.22
2023-07-03T15:42:59.630Z,100952.13
2023-07-03T15:45:27.972Z,100954.31
2023-07-03T15:47:55.661Z,100952.91
2023-07-03T15:50:23.527Z,100949.19
2023-07-03T15:52:56.831Z,100954.81
2023-07-03T15:55:24.774Z,100960.69
2023-07-03T15:57:52.627Z,100963.88
2023-07-03T16:00:21.005Z,100962.56
2023-07-03T16:02:48.622Z,100951.03
2023-07-03T16:05:18.088Z,100951.69
2023-07-03T16:08:11.169Z,100952.13
2023-07-03T16:10:41.562Z,100949.25
2023-07-03T16:13:09.360Z,100959.56
2023-07-03T16:15:48.948Z,100943.38
2023-07-03T16:18:32.098Z,100942.53
2023-07-03T16:21:13.456Z,100934.63
2023-07-03T16:23:47.361Z,100939.88
2023-07-03T16:26:17.830Z,100935.09
2023-07-03T16:28:49.588Z,100932.09
2023-07-03T16:31:31.125Z,100933.59
2023-07-03T16:34:01.785Z,100929.50
2023-07-03T16:36:34.028Z,100928.66
2023-07-03T16:39:09.121Z,100925.00
2023-07-03T16:41:40.226Z,100924.16
2023-07-03T16:45:03.765Z,100923.09
2023-07-03T16:47:36.672Z,100911.66
2023-07-03T16:50:09.911Z,100911.56
2023-07-03T16:52:51.579Z,100911.44
2023-07-03T16:55:39.199Z,100906.00
2023-07-03T16:58:09.355Z,100904.94
2023-07-03T17:01:09.607Z,100899.59
2023-07-03T17:04:07.123Z,100902.34
2023-07-03T17:06:40.902Z,100895.19
2023-07-03T17:09:14.132Z,100892.75
2023-07-03T17:11:41.938Z,100885.06
2023-07-03T17:14:09.635Z,100885.34
2023-07-03T17:16:37.618Z,100887.50
2023-07-03T17:19:05.386Z,100888.75
2023-07-03T17:21:43.879Z,100889.06
2023-07-03T17:24:11.519Z,100879.47
2023-07-03T17:26:41.753Z,100875.16
2023-07-03T17:29:09.533Z,100861.06
2023-07-03T17:31:37.397Z,100867.28
2023-07-03T17:34:05.158Z,100871.75
2023-07-03T17:36:34.264Z,100869.94
2023-07-03T17:39:01.854Z,100862.03
2023-07-03T17:41:29.497Z,100862.03
2023-07-03T17:43:57.024Z,100855.94
2023-07-03T17:46:24.625Z,100867.47
2023-07-03T17:48:52.238Z,100871.13
2023-07-03T17:51:19.863Z,100855.19
2023-07-03T17:53:48.648Z,100864.16
2023-07-03T17:56:16.222Z,100854.63
2023-07-03T17:58:44.599Z,100860.94
2023-07-03T18:01:13.082Z,100859.34
2023-07-03T18:03:41.073Z,100862.13
2023-07-03T18:06:09.221Z,100860.63
2023-07-03T18:08:37.026Z,100849.28
2023-07-03T18:11:04.784Z,100844.03
2023-07-03T18:13:32.585Z,100854.94
2023-07-03T18:16:03.575Z,100856.13
2023-07-03T18:18:34.084Z,100848.28
2023-07-03T18:21:04.553Z,100845.63
2023-07-03T18:23:32.165Z,100844.69
2023-07-03T18:25:59.653Z,100846.38
2023-07-03T18:28:27.194Z,100842.00
2023-07-03T18:31:03.581Z,100836.66
2023-07-03T18:33:36.077Z,100855.38
2023-07-03T18:36:04.577Z,100841.16
2023-07-03T18:38:32.263Z,100830.69
2023-07-03T18:41:06.982Z,100837.94
2023-07-03T18:43:34.684Z,100843.59
2023-07-03T18:46:02.461Z,100841.13
2023-07-03T18:48:30.154Z,100839.63
2023-07-03T18:50:57.805Z,100844.19
2023-07-03T18:53:25.523Z,100839.94
2023-07-03T18:55:53.867Z,100847.28
2023-07-03T18:58:21.833Z,100846.66
2023-07-03T19:00:49.534Z,100846.84
2023-07-03T19:03:17.708Z,100850.66
2023-07-03T19:05:51.916Z,100849.88
2023-07-03T19:08:20.235Z,100838.34
2023-07-03T19:10:47.792Z,100849.22
2023-07-03T19:13:15.478Z,100843.25
2023-07-03T19:15:43.293Z,100850.59
2023-07-03T19:18:11.590Z,100861.34
2023-07-03T19:20:41.409Z,100858.03
2023-07-03T19:23:11.340Z,100853.75
2023-07-03T19:25:59.032Z,100860.16
2023-07-03T19:28:39.413Z,100865.88
2023-07-03T19:31:21.024Z,100865.13
2023-07-03T19:33:51.297Z,100863.91
2023-07-03T19:36:23.822Z,100858.97
2023-07-03T19:39:03.587Z,100866.31
2023-07-03T19:41:34.353Z,100872.03
2023-07-03T19:44:06.231Z,100883.00
2023-07-03T19:46:39.840Z,100882.31
2023-07-03T19:49:12.001Z,100890.63
2023-07-03T19:51:39.897Z,100880.97
2023-07-03T19:54:08.416Z,100891.75
2023-07-03T19:56:37.297Z,100887.44
2023-07-03T19:59:04.960Z,100893.00
2023-07-03T20:01:33.012Z,100897.66
2023-07-03T20:04:00.992Z,100907.63
2023-07-03T20:06:28.705Z,100903.44
2023-07-03T20:08:57.754Z,100902.78
2023-07-03T20:11:26.105Z,100899.22
2023-07-03T20:13:54.119Z,100911.78
2023-07-03T20:16:22.455Z,100909.31
2023-07-03T20:18:59.317Z,100912.91
2023-07-03T20:21:27.008Z,100908.72
2023-07-03T20:23:56.247Z,100909.69
2023-07-03T20:26:28.154Z,100908.94
2023-07-03T20:28:56.149Z,100903.78
2023-07-03T20:31:24.071Z,100903.78
2023-07-03T20:33:51.757Z,100903.00
2023-07-03T20:36:20.642Z,100909.31
2023-07-03T20:38:48.880Z,100915.69
2023-07-03T20:41:16.811Z,100918.50
2023-07-03T20:43:44.785Z,100903.50
2023-07-03T20:46:17.630Z,100911.47
2023-07-03T20:48:45.934Z,100914.22
2023-07-03T20:51:14.285Z,100908.13
2023-07-03T20:53:54.181Z,100910.03
2023-07-03T20:56:30.187Z,100919.06
2023-07-03T20:59:00.013Z,100926.28
2023-07-03T21:01:33.125Z,100922.00
2023-07-03T21:04:05.183Z,100924.00
2023-07-03T21:06:37.956Z,100921.41
2023-07-03T21:09:08.031Z,100920.66
2023-07-03T21:11:40.444Z,100917.31
2023-07-03T21:14:08.399Z,100915.59
2023-07-03T21:16:39.872Z,100921.00
2023-07-03T21:19:12.379Z,100923.75
2023-07-03T21:21:41.786Z,100925.66
2023-07-03T21:24:12.260Z,100917.75
2023-07-03T21:26:42.533Z,100916.97
2023-07-03T21:29:10.420Z,100922.41
2023-07-03T21:31:38.166Z,100918.09
2023-07-03T21:34:06.027Z,100923.44
2023-07-03T21:36:36.472Z,100927.06
2023-07-03T21:39:05.906Z,100920.88
2023-07-03T21:41:36.784Z,100925.31
2023-07-03T21:44:15.660Z,100936.94
2023-07-03T21:46:47.097Z,100940.63
2023-07-03T21:49:16.716Z,100943.91
2023-07-03T21:51:44.562Z,100940.81
2023-07-03T21:54:12.257Z,100949.06
2023-07-03T21:56:41.559Z,100969.72
2023-07-03T21:59:09.554Z,101005.31
2023-07-03T22:01:39.799Z,101009.63
2023-07-03T22:04:09.282Z,101010.25
2023-07-03T22:06:36.987Z,101013.75
2023-07-03T22:09:04.848Z,101019.75
2023-07-03T22:11:33.652Z,101012.97
2023-07-03T22:14:03.329Z,101009.66
2023-07-03T22:16:31.041Z,101001.88
2023-07-03T22:18:58.616Z,100982.53
2023-07-03T22:21:26.249Z,100992.13
2023-07-03T22:23:53.756Z,101022.75
2023-07-03T22:26:21.896Z,101017.00
2023-07-03T22:28:50.213Z,101019.25
2023-07-03T22:31:17.914Z,101017.72
2023-07-03T22:33:45.496Z,101016.25
2023-07-03T22:36:14.944Z,100998.78
2023-07-03T22:38:42.553Z,101000.72
2023-07-03T22:41:10.934Z,100994.75
2023-07-03T22:43:38.621Z,100991.38
2023-07-03T22:46:12.368Z,100990.66
2023-07-03T22:48:44.823Z,100973.25
2023-07-03T22:51:13.723Z,100984.91
2023-07-03T22:53:41.306Z,100977.22
2023-07-03T22:56:08.832Z,100976.38
2023-07-03T22:58:36.486Z,100985.25
2023-07-03T23:01:10.247Z,100980.78
2023-07-03T23:03:40.020Z,100980.78
2023-07-03T23:06:08.621Z,100985.19
2023-07-03T23:08:38.059Z,100984.22
2023-07-03T23:11:06.969Z,100979.81
2023-07-03T23:13:35.292Z,100977.22
2023-07-03T23:16:06.922Z,100981.69
2023-07-03T23:18:38.524Z,100980.78
2023-07-03T23:21:11.300Z,100982.00
2023-07-03T23:23:39.568Z,100977.63
2023-07-03T23:26:13.290Z,100974.06
2023-07-03T23:28:43.337Z,100972.31
2023-07-03T23:31:14.894Z,100979.47
2023-07-03T23:33:49.057Z,100984.06
2023-07-03T23:36:21.502Z,100974.44
2023-07-03T23:38:52.914Z,100982.47
2023-07-03T23:41:21.500Z,100987.03
2023-07-03T23:43:50.316Z,100989.72
2023-07-03T23:46:18.512Z,100995.03
2023-07-03T23:48:46.302Z,101017.13
2023-07-03T23:51:18.606Z,101063.09
2023-07-03T23:53:48.492Z,101065.16
2023-07-03T23:56:19.682Z,101053.88
2023-07-03T23:58:49.782Z,101063.72
